createdAt,value
2022-10-01T00:01:49.991Z,13.30
2022-10-01T00:04:52.957Z,13.28
2022-10-01T00:07:55.951Z,13.27
2022-10-01T00:11:02.382Z,13.23
2022-10-01T00:14:10.766Z,13.20
2022-10-01T00:17:13.880Z,13.22
2022-10-01T00:20:17.098Z,13.28
2022-10-01T00:23:20.072Z,13.33
2022-10-01T00:26:27.291Z,13.38
2022-10-01T00:29:32.002Z,13.38
2022-10-01T00:32:35.142Z,13.35
2022-10-01T00:35:38.597Z,13.33
2022-10-01T00:38:42.323Z,13.38
2022-10-01T00:41:45.199Z,13.35
2022-10-01T00:44:49.827Z,13.31
2022-10-01T00:47:58.030Z,13.31
2022-10-01T00:51:01.242Z,13.20
2022-10-01T00:54:13.359Z,13.30
2022-10-01T00:57:21.994Z,13.32
2022-10-01T01:00:25.288Z,13.35
2022-10-01T01:03:28.776Z,13.40
2022-10-01T01:06:31.573Z,13.40
2022-10-01T01:09:37.876Z,13.38
2022-10-01T01:13:09.405Z,13.38
2022-10-01T01:16:27.961Z,13.38
2022-10-01T01:19:54.044Z,13.38
2022-10-01T01:23:32.115Z,13.42
2022-10-01T01:26:59.133Z,13.42
2022-10-01T01:30:06.518Z,13.33
2022-10-01T01:33:17.828Z,13.35
2022-10-01T01:36:32.411Z,13.32
2022-10-01T01:39:36.168Z,13.40
2022-10-01T01:42:43.088Z,13.42
2022-10-01T01:45:51.274Z,13.48
2022-10-01T01:48:57.830Z,13.44
2022-10-01T01:52:10.660Z,13.43
2022-10-01T01:55:13.424Z,13.45
2022-10-01T01:58:20.565Z,13.46
2022-10-01T02:01:32.763Z,13.45
2022-10-01T02:04:43.399Z,13.40
2022-10-01T02:07:55.119Z,13.35
2022-10-01T02:11:18.907Z,13.31
2022-10-01T02:14:32.780Z,13.25
2022-10-01T02:18:16.608Z,13.23
2022-10-01T02:21:38.428Z,13.21
2022-10-01T02:24:49.324Z,13.19
2022-10-01T02:27:59.598Z,13.23
2022-10-01T02:31:04.350Z,13.21
2022-10-01T02:34:12.402Z,13.22
2022-10-01T02:37:19.348Z,13.23
2022-10-01T02:40:26.531Z,13.21
2022-10-01T02:43:39.414Z,13.20
2022-10-01T02:47:09.015Z,13.18
2022-10-01T02:50:13.034Z,13.29
2022-10-01T02:53:32.625Z,13.31
2022-10-01T02:56:56.348Z,13.28
2022-10-01T03:00:13.226Z,13.30
2022-10-01T03:03:16.059Z,13.26
2022-10-01T03:06:18.689Z,13.27
2022-10-01T03:09:21.878Z,13.27
2022-10-01T03:12:24.516Z,13.27
2022-10-01T03:15:28.095Z,13.26
2022-10-01T03:18:31.284Z,13.22
2022-10-01T03:21:38.045Z,13.28
2022-10-01T03:24:47.272Z,13.31
2022-10-01T03:27:52.171Z,13.29
2022-10-01T03:31:10.264Z,13.31
2022-10-01T03:34:16.626Z,13.31
2022-10-01T03:37:19.123Z,13.25
2022-10-01T03:40:21.875Z,13.30
2022-10-01T03:43:24.567Z,13.35
2022-10-01T03:46:27.895Z,13.36
2022-10-01T03:49:30.675Z,13.39
2022-10-01T03:52:33.397Z,13.39
2022-10-01T03:55:36.954Z,13.32
2022-10-01T03:58:40.040Z,13.24
2022-10-01T04:01:43.867Z,13.26
2022-10-01T04:04:46.967Z,13.24
2022-10-01T04:07:49.973Z,13.23
2022-10-01T04:10:54.078Z,13.25
2022-10-01T04:14:00.713Z,13.24
2022-10-01T04:17:04.610Z,13.19
2022-10-01T04:20:15.701Z,13.17
2022-10-01T04:23:18.759Z,13.15
2022-10-01T04:26:21.287Z,13.16
2022-10-01T04:29:24.238Z,13.13
2022-10-01T04:32:26.980Z,13.15
2022-10-01T04:35:29.868Z,13.15
2022-10-01T04:38:32.492Z,13.14
2022-10-01T04:41:36.151Z,13.14
2022-10-01T04:44:39.607Z,13.13
2022-10-01T04:47:52.991Z,13.15
2022-10-01T04:50:55.533Z,13.16
2022-10-01T04:53:58.658Z,13.17
2022-10-01T04:57:01.302Z,13.14
2022-10-01T05:00:06.646Z,13.16
2022-10-01T05:03:17.148Z,13.23
2022-10-01T05:06:23.038Z,13.26
2022-10-01T05:09:32.000Z,13.26
2022-10-01T05:12:35.170Z,13.26
2022-10-01T05:15:38.561Z,13.30
2022-10-01T05:18:43.509Z,13.37
2022-10-01T05:21:46.514Z,13.40
2022-10-01T05:24:50.255Z,13.40
2022-10-01T05:27:53.163Z,13.35
2022-10-01T05:31:05.993Z,13.41
2022-10-01T05:34:09.987Z,13.38
2022-10-01T05:37:15.009Z,13.44
2022-10-01T05:40:22.046Z,13.41
2022-10-01T05:43:27.810Z,13.34
2022-10-01T05:46:38.024Z,13.35
2022-10-01T05:49:44.750Z,13.39
2022-10-01T05:52:54.024Z,13.44
2022-10-01T05:56:00.308Z,13.42
2022-10-01T05:59:05.032Z,13.37
2022-10-01T06:02:11.117Z,13.40
2022-10-01T06:05:22.739Z,13.40
2022-10-01T06:08:29.798Z,13.37
2022-10-01T06:11:42.057Z,13.31
2022-10-01T06:14:47.816Z,13.34
2022-10-01T06:17:51.193Z,13.28
2022-10-01T06:20:58.801Z,13.32
2022-10-01T06:24:12.026Z,13.38
2022-10-01T06:27:15.781Z,13.45
2022-10-01T06:30:18.749Z,13.51
2022-10-01T06:33:26.825Z,13.55
2022-10-01T06:36:37.721Z,13.59
2022-10-01T06:39:43.872Z,13.61
2022-10-01T06:42:54.797Z,13.67
2022-10-01T06:46:11.131Z,13.68
2022-10-01T06:49:15.813Z,13.77
2022-10-01T06:52:37.136Z,13.81
2022-10-01T06:55:48.704Z,13.79
2022-10-01T06:58:58.790Z,13.83
2022-10-01T07:06:26.163Z,13.85
2022-10-01T07:09:31.824Z,13.84
2022-10-01T07:12:38.392Z,13.84
2022-10-01T07:15:48.915Z,13.88
2022-10-01T07:18:52.454Z,13.96
2022-10-01T07:21:56.112Z,14.04
2022-10-01T07:25:01.536Z,14.09
2022-10-01T07:28:08.869Z,14.13
2022-10-01T07:31:15.118Z,14.09
2022-10-01T07:34:33.034Z,14.14
2022-10-01T07:37:37.800Z,14.24
2022-10-01T07:40:43.215Z,14.25
2022-10-01T07:43:54.963Z,14.33
2022-10-01T07:47:05.108Z,14.35
2022-10-01T07:50:10.836Z,14.48
2022-10-01T07:53:27.661Z,14.63
2022-10-01T07:56:33.801Z,14.57
2022-10-01T07:59:41.836Z,14.56
2022-10-01T08:02:56.866Z,14.58
2022-10-01T08:06:00.223Z,14.50
2022-10-01T08:09:18.711Z,14.53
2022-10-01T08:12:30.822Z,14.56
2022-10-01T08:15:36.083Z,14.61
2022-10-01T08:18:44.364Z,14.62
2022-10-01T08:21:47.744Z,14.63
2022-10-01T08:24:51.456Z,14.68
2022-10-01T08:28:09.203Z,14.74
2022-10-01T08:31:16.154Z,14.66
2022-10-01T08:34:20.339Z,14.78
2022-10-01T08:37:30.875Z,14.90
2022-10-01T08:40:42.276Z,14.91
2022-10-01T08:43:45.365Z,14.88
2022-10-01T08:46:51.456Z,14.89
2022-10-01T08:50:01.122Z,15.03
2022-10-01T08:53:12.051Z,15.29
2022-10-01T08:56:38.963Z,15.60
2022-10-01T09:00:00.853Z,15.78
2022-10-01T09:03:11.965Z,15.71
2022-10-01T09:06:23.066Z,15.79
2022-10-01T09:09:27.990Z,15.92
2022-10-01T09:12:52.084Z,15.88
2022-10-01T09:16:08.834Z,15.98
2022-10-01T09:19:40.785Z,16.01
2022-10-01T09:22:51.351Z,15.98
2022-10-01T09:25:57.659Z,15.91
2022-10-01T09:29:03.805Z,15.98
2022-10-01T09:32:18.811Z,16.07
2022-10-01T09:35:31.584Z,16.10
2022-10-01T09:38:49.172Z,16.12
2022-10-01T09:42:00.824Z,16.36
2022-10-01T09:45:11.793Z,16.40
2022-10-01T09:48:27.830Z,17.07
2022-10-01T09:51:44.193Z,17.90
2022-10-01T09:54:57.666Z,18.08
2022-10-01T09:58:10.777Z,17.83
2022-10-01T10:01:39.129Z,17.98
2022-10-01T10:04:44.023Z,18.37
2022-10-01T10:07:52.983Z,18.83
2022-10-01T10:11:00.938Z,18.95
2022-10-01T10:14:12.171Z,19.25
2022-10-01T10:17:18.291Z,19.30
2022-10-01T10:20:39.919Z,19.37
2022-10-01T10:23:50.782Z,19.09
2022-10-01T10:26:58.853Z,18.69
2022-10-01T10:30:14.924Z,18.69
2022-10-01T10:33:22.451Z,18.65
2022-10-01T10:36:29.840Z,18.85
2022-10-01T10:39:42.117Z,18.89
2022-10-01T10:42:58.584Z,18.79
2022-10-01T10:46:08.842Z,18.51
2022-10-01T10:49:17.688Z,18.79
2022-10-01T10:52:37.068Z,18.85
2022-10-01T10:55:42.885Z,18.84
2022-10-01T10:58:53.748Z,18.75
2022-10-01T11:02:08.140Z,18.74
2022-10-01T11:05:22.312Z,18.92
2022-10-01T11:08:31.751Z,19.30
2022-10-01T11:11:55.213Z,19.76
2022-10-01T11:15:36.012Z,19.76
2022-10-01T11:19:31.121Z,19.94
2022-10-01T11:23:01.717Z,19.67
2022-10-01T11:26:27.099Z,19.80
2022-10-01T11:30:12.881Z,19.68
2022-10-01T11:33:45.454Z,19.83
2022-10-01T11:37:10.955Z,19.68
2022-10-01T11:40:27.119Z,19.79
2022-10-01T11:43:41.822Z,19.84
2022-10-01T11:46:54.558Z,19.86
2022-10-01T11:50:15.709Z,20.04
2022-10-01T11:53:31.052Z,20.14
2022-10-01T11:57:00.838Z,20.10
2022-10-01T12:00:08.897Z,20.25
2022-10-01T12:03:29.830Z,20.29
2022-10-01T12:07:03.785Z,20.37
2022-10-01T12:10:40.750Z,20.42
2022-10-01T12:13:55.461Z,20.49
2022-10-01T12:17:12.843Z,20.42
2022-10-01T12:20:30.843Z,20.33
2022-10-01T12:24:11.717Z,20.20
2022-10-01T12:27:37.435Z,20.13
2022-10-01T12:30:51.825Z,19.85
2022-10-01T12:34:17.159Z,19.75
2022-10-01T12:38:08.874Z,19.76
2022-10-01T12:41:45.241Z,19.88
2022-10-01T12:45:26.004Z,19.89
2022-10-01T12:48:42.772Z,19.75
2022-10-01T12:52:37.918Z,19.76
2022-10-01T12:56:03.822Z,19.79
2022-10-01T12:59:44.893Z,19.76
2022-10-01T13:03:23.828Z,19.53
2022-10-01T13:06:49.813Z,19.37
2022-10-01T13:10:07.201Z,19.25
2022-10-01T13:13:35.792Z,19.19
2022-10-01T13:16:48.822Z,19.06
2022-10-01T13:20:21.375Z,18.96
2022-10-01T13:23:37.898Z,18.95
2022-10-01T13:26:57.850Z,19.04
2022-10-01T13:30:17.070Z,19.07
2022-10-01T13:33:32.914Z,18.99
2022-10-01T13:36:40.816Z,18.92
2022-10-01T13:39:47.840Z,18.73
2022-10-01T13:43:00.401Z,18.69
2022-10-01T13:46:09.021Z,18.72
2022-10-01T13:49:36.035Z,18.95
2022-10-01T13:52:41.799Z,19.13
2022-10-01T13:55:50.074Z,19.10
2022-10-01T13:58:55.072Z,19.16
2022-10-01T14:02:03.500Z,19.16
2022-10-01T14:05:16.844Z,19.09
2022-10-01T14:08:32.879Z,19.08
2022-10-01T14:12:05.350Z,19.12
2022-10-01T14:15:42.928Z,19.03
2022-10-01T14:18:56.983Z,19.16
2022-10-01T14:22:21.871Z,19.19
2022-10-01T14:25:51.435Z,19.10
2022-10-01T14:29:13.802Z,19.00
2022-10-01T14:32:54.800Z,18.84
2022-10-01T14:36:45.426Z,18.77
2022-10-01T14:40:12.257Z,18.72
2022-10-01T14:43:32.159Z,18.63
2022-10-01T14:46:37.523Z,18.40
2022-10-01T14:49:41.769Z,18.20
2022-10-01T14:52:55.960Z,18.12
2022-10-01T14:56:10.513Z,18.02
2022-10-01T14:59:41.093Z,17.89
2022-10-01T15:03:01.833Z,17.74
2022-10-01T15:06:21.026Z,17.76
2022-10-01T15:09:35.819Z,17.70
2022-10-01T15:12:42.016Z,17.67
2022-10-01T15:15:45.063Z,17.61
2022-10-01T15:19:07.828Z,17.50
2022-10-01T15:22:16.784Z,17.43
2022-10-01T15:25:25.789Z,17.35
2022-10-01T15:28:34.764Z,17.25
2022-10-01T15:31:40.061Z,17.11
2022-10-01T15:34:54.273Z,17.01
2022-10-01T15:38:09.888Z,16.99
2022-10-01T15:41:40.392Z,16.89
2022-10-01T15:44:50.351Z,16.90
2022-10-01T15:47:58.569Z,16.86
2022-10-01T15:51:18.126Z,16.84
2022-10-01T15:54:22.548Z,16.73
2022-10-01T15:57:33.834Z,16.61
2022-10-01T16:01:00.114Z,16.55
2022-10-01T16:04:07.771Z,16.40
2022-10-01T16:07:26.278Z,16.29
2022-10-01T16:10:41.800Z,16.28
2022-10-01T16:13:50.738Z,16.18
2022-10-01T16:17:27.227Z,16.12
2022-10-01T16:20:36.949Z,16.06
2022-10-01T16:23:43.894Z,16.00
2022-10-01T16:26:48.198Z,15.93
2022-10-01T16:30:12.108Z,15.88
2022-10-01T16:33:29.205Z,15.81
2022-10-01T16:36:45.871Z,15.71
2022-10-01T16:39:50.208Z,15.58
2022-10-01T16:43:03.700Z,15.57
2022-10-01T16:46:08.320Z,15.55
2022-10-01T16:49:14.385Z,15.55
2022-10-01T16:52:24.748Z,15.48
2022-10-01T16:55:39.512Z,15.44
2022-10-01T16:58:52.906Z,15.39
2022-10-01T17:01:58.829Z,15.32
2022-10-01T17:05:08.819Z,15.27
2022-10-01T17:08:20.810Z,15.27
2022-10-01T17:11:32.093Z,15.19
2022-10-01T17:14:41.791Z,15.12
2022-10-01T17:17:47.062Z,15.09
2022-10-01T17:20:50.815Z,15.04
2022-10-01T17:24:04.901Z,15.00
2022-10-01T17:27:11.820Z,14.91
2022-10-01T17:30:18.142Z,14.84
2022-10-01T17:33:22.841Z,14.87
2022-10-01T17:36:28.137Z,14.83
2022-10-01T17:39:34.840Z,14.78
2022-10-01T17:42:52.001Z,14.73
2022-10-01T17:46:12.832Z,14.71
2022-10-01T17:49:20.849Z,14.65
2022-10-01T17:52:27.014Z,14.63
2022-10-01T17:55:37.933Z,14.60
2022-10-01T17:58:47.112Z,14.57
2022-10-01T18:05:15.224Z,14.51
2022-10-01T18:08:29.551Z,14.43
2022-10-01T18:11:44.148Z,14.31
2022-10-01T18:14:47.266Z,14.20
2022-10-01T18:18:58.734Z,14.21
2022-10-01T18:21:25.739Z,14.11
2022-10-01T18:24:35.001Z,14.01
2022-10-01T18:27:41.800Z,14.01
2022-10-01T18:31:18.883Z,14.00
2022-10-01T18:34:37.994Z,14.00
2022-10-01T18:37:57.946Z,14.04
2022-10-01T18:41:24.403Z,14.07
2022-10-01T18:44:28.416Z,14.05
2022-10-01T18:47:46.808Z,14.05
2022-10-01T18:51:30.046Z,14.05
2022-10-01T18:54:51.935Z,14.04
2022-10-01T18:58:32.945Z,14.01
2022-10-01T19:02:03.290Z,14.01
2022-10-01T19:05:58.208Z,14.03
2022-10-01T19:09:10.046Z,14.05
2022-10-01T19:13:07.849Z,14.06
2022-10-01T19:16:19.856Z,14.07
2022-10-01T19:19:41.972Z,14.10
2022-10-01T19:23:07.079Z,14.08
2022-10-01T19:26:31.152Z,14.03
2022-10-01T19:30:01.629Z,14.01
2022-10-01T19:33:21.128Z,14.01
2022-10-01T19:36:34.362Z,14.01
2022-10-01T19:39:45.086Z,13.93
2022-10-01T19:43:01.870Z,13.94
2022-10-01T19:46:16.819Z,13.90
2022-10-01T19:49:35.373Z,13.88
2022-10-01T19:52:51.496Z,13.81
2022-10-01T19:56:03.172Z,13.72
2022-10-01T19:59:29.762Z,13.68
2022-10-01T20:02:41.933Z,13.57
2022-10-01T20:05:54.834Z,13.51
2022-10-01T20:09:14.909Z,13.45
2022-10-01T20:12:31.087Z,13.46
2022-10-01T20:15:45.078Z,13.54
2022-10-01T20:19:16.155Z,13.60
2022-10-01T20:22:36.973Z,13.55
2022-10-01T20:25:58.176Z,13.49
2022-10-01T20:29:34.915Z,13.48
2022-10-01T20:33:12.022Z,13.55
2022-10-01T20:40:56.193Z,13.64
2022-10-01T20:44:09.337Z,13.62
2022-10-01T20:47:37.838Z,13.59
2022-10-01T20:50:54.211Z,13.67
2022-10-01T20:55:17.131Z,13.63
2022-10-01T20:58:36.002Z,13.72
2022-10-01T21:02:10.002Z,13.74
2022-10-01T21:05:54.211Z,13.85
2022-10-01T21:09:37.334Z,13.87
2022-10-01T21:12:48.336Z,13.91
2022-10-01T21:16:16.410Z,13.99
2022-10-01T21:20:02.401Z,14.00
2022-10-01T21:23:50.931Z,13.99
2022-10-01T21:27:25.934Z,13.99
2022-10-01T21:30:53.475Z,13.92
2022-10-01T21:34:22.835Z,13.87
2022-10-01T21:37:36.633Z,13.76
2022-10-01T21:40:51.355Z,13.65
2022-10-01T21:44:35.252Z,13.63
2022-10-01T21:47:58.889Z,13.53
2022-10-01T21:51:48.804Z,13.45
2022-10-01T21:54:52.848Z,13.33
2022-10-01T21:58:26.711Z,13.12
2022-10-01T22:01:55.550Z,12.93
2022-10-01T22:05:24.586Z,12.69
2022-10-01T22:08:46.192Z,12.69
2022-10-01T22:11:53.934Z,12.66
2022-10-01T22:14:59.469Z,12.60
2022-10-01T22:18:09.054Z,12.57
2022-10-01T22:21:18.169Z,12.44
2022-10-01T22:24:26.825Z,12.37
2022-10-01T22:27:50.694Z,12.26
2022-10-01T22:30:56.380Z,12.18
2022-10-01T22:34:09.406Z,12.11
2022-10-01T22:37:17.398Z,12.06
2022-10-01T22:40:35.920Z,12.07
2022-10-01T22:43:43.217Z,12.14
2022-10-01T22:47:04.230Z,12.07
2022-10-01T22:50:25.703Z,12.11
2022-10-01T22:53:55.212Z,12.01
2022-10-01T22:57:07.493Z,11.96
2022-10-01T23:00:14.884Z,12.03
2022-10-01T23:03:35.982Z,12.02
2022-10-01T23:07:11.929Z,11.87
2022-10-01T23:10:36.865Z,11.90
2022-10-01T23:13:56.626Z,11.87
2022-10-01T23:17:05.859Z,11.93
2022-10-01T23:20:28.097Z,12.00
2022-10-01T23:23:33.034Z,12.02
2022-10-01T23:26:51.855Z,12.06
2022-10-01T23:30:07.972Z,12.03
2022-10-01T23:33:33.305Z,11.98
2022-10-01T23:36:47.530Z,11.86
2022-10-01T23:39:52.863Z,11.90
2022-10-01T23:43:09.985Z,11.84
2022-10-01T23:46:31.753Z,11.84
2022-10-01T23:49:40.059Z,11.91
2022-10-01T23:52:52.838Z,11.95
2022-10-01T23:56:31.071Z,11.96
2022-10-01T23:59:46.073Z,11.90
